Time,TemperatureF,DewpointF,PressureIn,WindDirection,WindDirectionDegrees,WindSpeedMPH,WindSpeedGustMPH,Humidity,HourlyPrecipIn,Conditions,Clouds,dailyrainin,SoftwareType,DateUTC
2013-01-22 00:00:00,27.0,18.2,29.59,NE,45,3.8,3.8,69,0.00,,---,0.00,VWS V14.01,2013-01-22 05:00:00,
2013-01-22 00:05:00,27.1,17.6,29.59,NNW,338,3.1,3.1,67,0.00,,---,0.00,VWS V14.01,2013-01-22 05:05:00,
2013-01-22 00:10:00,27.1,17.0,29.59,NNW,338,3.4,4.0,65,0.00,,---,0.00,VWS V14.01,2013-01-22 05:10:00,
2013-01-22 00:15:00,27.0,16.1,29.59,NNW,338,4.0,6.3,63,0.00,,---,0.00,VWS V14.01,2013-01-22 05:15:00,
2013-01-22 00:20:00,27.0,15.3,29.59,NNE,22,3.4,4.9,61,0.00,,---,0.00,VWS V14.01,2013-01-22 05:20:00,
2013-01-22 00:25:00,27.0,14.6,29.62,WNW,292,3.6,9.8,59,0.00,,---,0.00,VWS V14.01,2013-01-22 05:25:00,
2013-01-22 00:30:00,27.0,13.8,29.62,NW,315,4.7,4.7,57,0.00,,---,0.00,VWS V14.01,2013-01-22 05:30:00,
2013-01-22 00:35:00,26.4,13.3,29.62,NNW,338,6.5,6.5,57,0.00,,---,0.00,VWS V14.01,2013-01-22 05:35:00,
2013-01-22 00:40:00,26.4,13.3,29.59,NW,315,2.0,2.0,57,0.00,,---,0.00,VWS V14.01,2013-01-22 05:40:00,
2013-01-22 00:45:00,26.2,13.1,29.59,NNW,338,3.1,3.1,57,0.00,,---,0.00,VWS V14.01,2013-01-22 05:45:00,
2013-01-22 00:50:00,26.1,12.9,29.59,West,270,6.3,6.3,57,0.00,,---,0.00,VWS V14.01,2013-01-22 05:50:00,
2013-01-22 00:55:00,25.9,12.8,29.59,NNW,338,3.1,3.1,57,0.00,,---,0.00,VWS V14.01,2013-01-22 05:55:00,
2013-01-22 01:00:00,25.7,12.6,29.59,NW,315,1.6,4.3,57,0.00,,---,0.00,VWS V14.01,2013-01-22 06:00:00,
2013-01-22 01:05:00,25.5,12.4,29.59,NNW,338,2.5,2.5,57,0.00,,---,0.00,VWS V14.01,2013-01-22 06:05:00,
2013-01-22 01:10:00,25.3,11.9,29.62,NNE,22,2.7,2.7,56,0.00,,---,0.00,VWS V14.01,2013-01-22 06:10:00,
2013-01-22 01:15:00,25.3,11.9,29.62,NNE,22,3.6,3.6,56,0.00,,---,0.00,VWS V14.01,2013-01-22 06:15:00,
2013-01-22 01:20:00,25.3,11.4,29.62,NNW,338,2.7,3.4,55,0.00,,---,0.00,VWS V14.01,2013-01-22 06:20:00,
2013-01-22 01:25:00,25.2,11.3,29.62,NW,315,4.7,4.7,55,0.00,,---,0.00,VWS V14.01,2013-01-22 06:25:00,
2013-01-22 01:30:00,25.0,10.7,29.62,NNE,22,5.6,5.6,54,0.00,,---,0.00,VWS V14.01,2013-01-22 06:30:00,
2013-01-22 01:35:00,24.8,10.9,29.62,NNW,338,2.7,2.7,55,0.00,,---,0.00,VWS V14.01,2013-01-22 06:35:00,
2013-01-22 01:40:00,24.4,10.6,29.62,NW,315,4.0,4.0,55,0.00,,---,0.00,VWS V14.01,2013-01-22 06:40:00,
2013-01-22 01:45:00,24.4,10.6,29.62,NNW,338,4.7,4.7,55,0.00,,---,0.00,VWS V14.01,2013-01-22 06:45:00,
2013-01-22 01:50:00,24.3,10.4,29.62,NNW,338,3.1,3.6,55,0.00,,---,0.00,VWS V14.01,2013-01-22 06:50:00,
2013-01-22 01:55:00,24.4,10.6,29.62,NNW,338,7.2,7.2,55,0.00,,---,0.00,VWS V14.01,2013-01-22 06:55:00,
2013-01-22 02:00:00,24.4,10.2,29.62,NNW,338,4.9,4.9,54,0.00,,---,0.00,VWS V14.01,2013-01-22 07:00:00,
2013-01-22 02:05:00,24.4,10.2,29.62,NNW,338,4.9,6.0,54,0.00,,---,0.00,VWS V14.01,2013-01-22 07:05:00,
2013-01-22 02:10:00,24.3,9.6,29.62,NNE,22,4.9,4.9,53,0.00,,---,0.00,VWS V14.01,2013-01-22 07:10:00,
2013-01-22 02:15:00,24.3,10.0,29.62,NNW,338,6.3,6.3,54,0.00,,---,0.00,VWS V14.01,2013-01-22 07:15:00,
2013-01-22 02:20:00,24.3,9.6,29.62,WNW,292,3.4,3.4,53,0.00,,---,0.00,VWS V14.01,2013-01-22 07:20:00,
2013-01-22 02:25:00,23.9,9.3,29.62,NNE,22,3.8,3.8,53,0.00,,---,0.00,VWS V14.01,2013-01-22 07:25:00,
2013-01-22 02:30:00,23.5,8.9,29.62,NNW,338,2.7,2.7,53,0.00,,---,0.00,VWS V14.01,2013-01-22 07:30:00,
2013-01-22 02:35:00,23.5,8.9,29.62,NNE,22,2.5,2.5,53,0.00,,---,0.00,VWS V14.01,2013-01-22 07:35:00,
2013-01-22 02:40:00,23.4,8.8,29.65,NNE,22,1.3,2.7,53,0.00,,---,0.00,VWS V14.01,2013-01-22 07:40:00,
2013-01-22 02:45:00,23.4,8.8,29.65,NNW,338,1.6,2.0,53,0.00,,---,0.00,VWS V14.01,2013-01-22 07:45:00,
2013-01-22 02:50:00,23.2,8.6,29.65,NW,315,3.8,3.8,53,0.00,,---,0.00,VWS V14.01,2013-01-22 07:50:00,
2013-01-22 02:55:00,23.0,8.4,29.65,NNW,338,2.7,6.3,53,0.00,,---,0.00,VWS V14.01,2013-01-22 07:55:00,
2013-01-22 03:00:00,23.2,8.6,29.65,NNW,338,2.9,5.4,53,0.00,,---,0.00,VWS V14.01,2013-01-22 08:00:00,
2013-01-22 03:05:00,22.8,8.3,29.65,NNW,338,2.9,2.9,53,0.00,,---,0.00,VWS V14.01,2013-01-22 08:05:00,
2013-01-22 03:10:00,22.8,8.3,29.65,NW,315,3.4,3.4,53,0.00,,---,0.00,VWS V14.01,2013-01-22 08:10:00,
2013-01-22 03:15:00,22.8,8.3,29.65,WNW,292,4.7,4.7,53,0.00,,---,0.00,VWS V14.01,2013-01-22 08:15:00,
2013-01-22 03:20:00,23.0,8.4,29.65,NNW,338,3.6,3.6,53,0.00,,---,0.00,VWS V14.01,2013-01-22 08:20:00,
2013-01-22 03:25:00,22.8,8.3,29.65,WNW,292,4.3,4.3,53,0.00,,---,0.00,VWS V14.01,2013-01-22 08:25:00,
2013-01-22 03:30:00,22.8,7.8,29.65,NNW,338,4.0,5.4,52,0.00,,---,0.00,VWS V14.01,2013-01-22 08:30:00,
2013-01-22 03:35:00,22.6,7.2,29.65,NNW,338,4.3,4.3,51,0.00,,---,0.00,VWS V14.01,2013-01-22 08:35:00,
2013-01-22 03:40:00,22.8,7.8,29.65,NNW,338,3.4,3.4,52,0.00,,---,0.00,VWS V14.01,2013-01-22 08:40:00,
2013-01-22 03:45:00,22.5,6.2,29.65,NNE,22,3.6,3.6,49,0.00,,---,0.00,VWS V14.01,2013-01-22 08:45:00,
2013-01-22 03:50:00,22.5,6.2,29.65,NNE,22,4.3,4.3,49,0.00,,---,0.00,VWS V14.01,2013-01-22 08:50:00,
2013-01-22 03:55:00,22.3,5.6,29.68,NW,315,13.0,13.0,48,0.00,,---,0.00,VWS V14.01,2013-01-22 08:55:00,
2013-01-22 04:00:00,22.5,5.3,29.68,NW,315,6.0,6.0,47,0.00,,---,0.00,VWS V14.01,2013-01-22 09:00:00,
2013-01-22 04:05:00,22.3,5.1,29.68,NNW,338,7.6,8.7,47,0.00,,---,0.00,VWS V14.01,2013-01-22 09:05:00,
2013-01-22 04:10:00,22.1,5.0,29.68,NW,315,4.9,4.9,47,0.00,,---,0.00,VWS V14.01,2013-01-22 09:10:00,
2013-01-22 04:15:00,21.9,4.8,29.68,NNW,338,7.6,7.6,47,0.00,,---,0.00,VWS V14.01,2013-01-22 09:15:00,
2013-01-22 04:20:00,21.9,4.3,29.68,WSW,248,6.0,6.0,46,0.00,,---,0.00,VWS V14.01,2013-01-22 09:20:00,
2013-01-22 04:25:00,21.9,4.3,29.68,WNW,292,8.5,8.5,46,0.00,,---,0.00,VWS V14.01,2013-01-22 09:25:00,
2013-01-22 04:30:00,21.7,4.2,29.68,NNW,338,5.8,5.8,46,0.00,,---,0.00,VWS V14.01,2013-01-22 09:30:00,
2013-01-22 04:35:00,21.7,4.2,29.68,NNW,338,6.3,6.3,46,0.00,,---,0.00,VWS V14.01,2013-01-22 09:35:00,
2013-01-22 04:40:00,21.6,4.0,29.68,WNW,292,10.5,10.5,46,0.00,,---,0.00,VWS V14.01,2013-01-22 09:40:00,
2013-01-22 04:45:00,21.7,4.2,29.68,WNW,292,5.4,10.5,46,0.00,,---,0.00,VWS V14.01,2013-01-22 09:45:00,
2013-01-22 04:50:00,21.6,4.0,29.68,NW,315,5.4,5.4,46,0.00,,---,0.00,VWS V14.01,2013-01-22 09:50:00,
2013-01-22 04:55:00,21.4,3.8,29.71,NW,315,10.7,10.7,46,0.00,,---,0.00,VWS V14.01,2013-01-22 09:55:00,
2013-01-22 05:00:00,21.4,3.8,29.71,NNW,338,7.6,7.6,46,0.00,,---,0.00,VWS V14.01,2013-01-22 10:00:00,
2013-01-22 05:05:00,21.2,3.7,29.71,NNW,338,4.9,7.2,46,0.00,,---,0.00,VWS V14.01,2013-01-22 10:05:00,
2013-01-22 05:10:00,21.2,4.1,29.71,WNW,292,6.0,6.0,47,0.00,,---,0.00,VWS V14.01,2013-01-22 10:10:00,
2013-01-22 05:15:00,21.0,4.0,29.71,West,270,4.0,4.0,47,0.00,,---,0.00,VWS V14.01,2013-01-22 10:15:00,
2013-01-22 05:20:00,21.0,4.0,29.71,WNW,292,5.8,5.8,47,0.00,,---,0.00,VWS V14.01,2013-01-22 10:20:00,
2013-01-22 05:25:00,20.8,3.8,29.71,WNW,292,7.6,7.6,47,0.00,,---,0.00,VWS V14.01,2013-01-22 10:25:00,
2013-01-22 05:30:00,20.7,3.2,29.71,NW,315,7.4,8.5,46,0.00,,---,0.00,VWS V14.01,2013-01-22 10:30:00,
2013-01-22 05:35:00,20.5,3.0,29.71,NNW,338,7.4,7.8,46,0.00,,---,0.00,VWS V14.01,2013-01-22 10:35:00,
2013-01-22 05:40:00,20.5,3.0,29.71,WNW,292,2.5,2.5,46,0.00,,---,0.00,VWS V14.01,2013-01-22 10:40:00,
2013-01-22 05:45:00,20.3,2.8,29.71,WNW,292,6.7,6.7,46,0.00,,---,0.00,VWS V14.01,2013-01-22 10:45:00,
2013-01-22 05:50:00,20.3,2.8,29.71,NNW,338,5.8,5.8,46,0.00,,---,0.00,VWS V14.01,2013-01-22 10:50:00,
2013-01-22 05:55:00,20.3,2.8,29.74,NNW,338,4.0,4.0,46,0.00,,---,0.00,VWS V14.01,2013-01-22 10:55:00,
2013-01-22 06:00:00,20.3,2.8,29.74,WNW,292,4.0,4.0,46,0.00,,---,0.00,VWS V14.01,2013-01-22 11:00:00,
2013-01-22 06:05:00,20.1,2.7,29.74,NW,315,7.8,7.8,46,0.00,,---,0.00,VWS V14.01,2013-01-22 11:05:00,
2013-01-22 06:10:00,19.9,2.5,29.74,WNW,292,5.8,16.3,46,0.00,,---,0.00,VWS V14.01,2013-01-22 11:10:00,
2013-01-22 06:15:00,20.1,2.7,29.74,North,0,3.1,3.1,46,0.00,,---,0.00,VWS V14.01,2013-01-22 11:15:00,
2013-01-22 06:20:00,19.9,2.5,29.74,NNW,338,5.8,5.8,46,0.00,,---,0.00,VWS V14.01,2013-01-22 11:20:00,
2013-01-22 06:25:00,19.9,2.5,29.74,WNW,292,6.3,6.3,46,0.00,,---,0.00,VWS V14.01,2013-01-22 11:25:00,
2013-01-22 06:30:00,19.9,2.5,29.74,NNE,22,3.6,3.6,46,0.00,,---,0.00,VWS V14.01,2013-01-22 11:30:00,
2013-01-22 06:35:00,19.8,2.3,29.74,WNW,292,8.7,8.7,46,0.00,,---,0.00,VWS V14.01,2013-01-22 11:35:00,
2013-01-22 06:40:00,19.8,2.3,29.76,NNW,338,3.4,9.4,46,0.00,,---,0.00,VWS V14.01,2013-01-22 11:40:00,
2013-01-22 06:45:00,19.9,2.5,29.76,NNW,338,4.9,4.9,46,0.00,,---,0.00,VWS V14.01,2013-01-22 11:45:00,
2013-01-22 06:50:00,19.8,2.3,29.76,NNW,338,3.8,6.3,46,0.00,,---,0.00,VWS V14.01,2013-01-22 11:50:00,
2013-01-22 06:55:00,19.8,2.3,29.76,NNW,338,2.7,3.6,46,0.00,,---,0.00,VWS V14.01,2013-01-22 11:55:00,
2013-01-22 07:00:00,19.6,2.2,29.76,NNW,338,2.9,2.9,46,0.00,,---,0.00,VWS V14.01,2013-01-22 12:00:00,
2013-01-22 07:05:00,19.6,2.2,29.76,NNW,338,5.8,5.8,46,0.00,,---,0.00,VWS V14.01,2013-01-22 12:05:00,
2013-01-22 07:10:00,19.4,2.5,29.76,WNW,292,3.4,3.4,47,0.00,,---,0.00,VWS V14.01,2013-01-22 12:10:00,
2013-01-22 07:15:00,19.2,2.3,29.76,NW,315,7.2,7.2,47,0.00,,---,0.00,VWS V14.01,2013-01-22 12:15:00,
2013-01-22 07:20:00,19.2,2.3,29.76,NW,315,4.3,4.3,47,0.00,,---,0.00,VWS V14.01,2013-01-22 12:20:00,
2013-01-22 07:25:00,19.4,2.5,29.76,WNW,292,9.6,9.6,47,0.00,,---,0.00,VWS V14.01,2013-01-22 12:25:00,
2013-01-22 07:30:00,19.4,2.0,29.76,NNW,338,4.9,4.9,46,0.00,,---,0.00,VWS V14.01,2013-01-22 12:30:00,
2013-01-22 07:35:00,19.2,1.8,29.76,NNW,338,6.0,6.0,46,0.00,,---,0.00,VWS V14.01,2013-01-22 12:35:00,
2013-01-22 07:40:00,19.4,2.0,29.76,WNW,292,3.6,3.6,46,0.00,,---,0.00,VWS V14.01,2013-01-22 12:40:00,
2013-01-22 07:45:00,19.4,2.0,29.76,NNE,22,6.5,6.5,46,0.00,,---,0.00,VWS V14.01,2013-01-22 12:45:00,
2013-01-22 07:50:00,19.4,2.0,29.76,NW,315,10.1,10.1,46,0.00,,---,0.00,VWS V14.01,2013-01-22 12:50:00,
2013-01-22 07:55:00,19.6,2.2,29.79,NNW,338,3.4,7.6,46,0.00,,---,0.00,VWS V14.01,2013-01-22 12:55:00,
2013-01-22 08:00:00,19.8,1.9,29.79,NNW,338,6.7,6.7,45,0.00,,---,0.00,VWS V14.01,2013-01-22 13:00:00,
2013-01-22 08:05:00,19.9,2.5,29.79,North,0,5.4,5.4,46,0.00,,---,0.00,VWS V14.01,2013-01-22 13:05:00,
2013-01-22 08:10:00,19.9,2.0,29.79,NNW,338,2.9,3.1,45,0.00,,---,0.00,VWS V14.01,2013-01-22 13:10:00,
2013-01-22 08:15:00,20.1,2.2,29.79,NNW,338,4.3,4.3,45,0.00,,---,0.00,VWS V14.01,2013-01-22 13:15:00,
2013-01-22 08:20:00,20.1,2.2,29.79,WNW,292,6.0,6.0,45,0.00,,---,0.00,VWS V14.01,2013-01-22 13:20:00,
2013-01-22 08:25:00,20.1,2.2,29.79,North,0,12.1,12.1,45,0.00,,---,0.00,VWS V14.01,2013-01-22 13:25:00,
2013-01-22 08:30:00,20.3,2.4,29.79,NW,315,7.4,7.4,45,0.00,,---,0.00,VWS V14.01,2013-01-22 13:30:00,
2013-01-22 08:35:00,20.3,2.4,29.79,NNW,338,11.0,11.0,45,0.00,,---,0.00,VWS V14.01,2013-01-22 13:35:00,
2013-01-22 08:40:00,20.3,2.4,29.79,NNW,338,7.8,7.8,45,0.00,,---,0.00,VWS V14.01,2013-01-22 13:40:00,
2013-01-22 08:45:00,20.3,2.4,29.79,NNW,338,6.3,6.3,45,0.00,,---,0.00,VWS V14.01,2013-01-22 13:45:00,
2013-01-22 08:50:00,20.3,1.9,29.79,NNW,338,17.5,17.5,44,0.00,,---,0.00,VWS V14.01,2013-01-22 13:50:00,
2013-01-22 08:55:00,20.7,2.7,29.79,NE,45,6.0,8.5,45,0.00,,---,0.00,VWS V14.01,2013-01-22 13:55:00,
2013-01-22 09:00:00,20.7,2.7,29.79,NNW,338,15.2,15.2,45,0.00,,---,0.00,VWS V14.01,2013-01-22 14:00:00,
2013-01-22 09:05:00,21.2,3.2,29.79,NNW,338,5.8,8.7,45,0.00,,---,0.00,VWS V14.01,2013-01-22 14:05:00,
2013-01-22 09:10:00,20.8,2.9,29.79,WNW,292,13.9,13.9,45,0.00,,---,0.00,VWS V14.01,2013-01-22 14:10:00,
2013-01-22 09:15:00,21.0,3.0,29.79,North,0,5.4,5.4,45,0.00,,---,0.00,VWS V14.01,2013-01-22 14:15:00,
2013-01-22 09:20:00,20.8,2.4,29.79,NNW,338,4.0,8.5,44,0.00,,---,0.00,VWS V14.01,2013-01-22 14:20:00,
2013-01-22 09:25:00,21.2,2.7,29.82,NNW,338,12.8,12.8,44,0.00,,---,0.00,VWS V14.01,2013-01-22 14:25:00,
2013-01-22 09:30:00,21.4,2.9,29.82,NW,315,4.7,4.7,44,0.00,,---,0.00,VWS V14.01,2013-01-22 14:30:00,
2013-01-22 09:35:00,21.9,3.4,29.82,WNW,292,7.6,7.6,44,0.00,,---,0.00,VWS V14.01,2013-01-22 14:35:00,
2013-01-22 09:40:00,22.6,4.0,29.82,NNE,22,4.0,4.0,44,0.00,,---,0.00,VWS V14.01,2013-01-22 14:40:00,
2013-01-22 09:45:00,23.7,4.5,29.82,WNW,292,3.6,3.6,43,0.00,,---,0.00,VWS V14.01,2013-01-22 14:45:00,
2013-01-22 09:50:00,23.5,4.3,29.82,WNW,292,10.1,13.4,43,0.00,,---,0.00,VWS V14.01,2013-01-22 14:50:00,
2013-01-22 09:55:00,24.4,6.2,29.82,WNW,292,2.7,6.5,45,0.00,,---,0.00,VWS V14.01,2013-01-22 14:55:00,
2013-01-22 10:00:00,25.5,5.6,29.82,WSW,248,13.0,13.0,42,0.00,,---,0.00,VWS V14.01,2013-01-22 15:00:00,
2013-01-22 10:05:00,26.4,7.0,29.82,WNW,292,8.7,8.7,43,0.00,,---,0.00,VWS V14.01,2013-01-22 15:05:00,
2013-01-22 10:10:00,27.5,7.4,29.82,NNE,22,8.1,8.1,42,0.00,,---,0.00,VWS V14.01,2013-01-22 15:10:00,
2013-01-22 10:15:00,27.1,7.1,29.82,WSW,248,8.5,8.5,42,0.00,,---,0.00,VWS V14.01,2013-01-22 15:15:00,
2013-01-22 10:20:00,29.1,8.9,29.82,NNW,338,8.7,8.7,42,0.00,,---,0.00,VWS V14.01,2013-01-22 15:20:00,
2013-01-22 10:25:00,26.6,6.6,29.85,NW,315,15.7,15.7,42,0.00,,---,0.00,VWS V14.01,2013-01-22 15:25:00,
2013-01-22 10:30:00,26.6,6.6,29.85,NNW,338,2.9,17.5,42,0.00,,---,0.00,VWS V14.01,2013-01-22 15:30:00,
2013-01-22 10:35:00,27.9,7.8,29.85,NNE,22,5.8,5.8,42,0.00,,---,0.00,VWS V14.01,2013-01-22 15:35:00,
2013-01-22 10:40:00,28.4,7.7,29.82,NNW,338,5.4,5.4,41,0.00,,---,0.00,VWS V14.01,2013-01-22 15:40:00,
2013-01-22 10:45:00,27.9,7.2,29.82,WNW,292,10.3,10.3,41,0.00,,---,0.00,VWS V14.01,2013-01-22 15:45:00,
2013-01-22 10:50:00,28.0,7.4,29.82,NNW,338,6.5,7.6,41,0.00,,---,0.00,VWS V14.01,2013-01-22 15:50:00,
2013-01-22 10:55:00,27.9,9.8,29.82,WNW,292,5.4,5.4,46,0.00,,---,0.00,VWS V14.01,2013-01-22 15:55:00,
2013-01-22 11:00:00,27.5,7.4,29.82,NNW,338,6.0,9.8,42,0.00,,---,0.00,VWS V14.01,2013-01-22 16:00:00,
2013-01-22 11:05:00,26.4,5.9,29.82,WNW,292,8.7,8.7,41,0.00,,---,0.00,VWS V14.01,2013-01-22 16:05:00,
2013-01-22 11:10:00,27.0,6.4,29.82,NNW,338,12.5,12.5,41,0.00,,---,0.00,VWS V14.01,2013-01-22 16:10:00,
2013-01-22 11:15:00,25.9,6.0,29.82,WNW,292,7.4,9.8,42,0.00,,---,0.00,VWS V14.01,2013-01-22 16:15:00,
2013-01-22 11:20:00,26.4,5.9,29.82,WNW,292,8.1,8.1,41,0.00,,---,0.00,VWS V14.01,2013-01-22 16:20:00,
2013-01-22 11:25:00,26.4,5.9,29.82,NW,315,7.6,7.6,41,0.00,,---,0.00,VWS V14.01,2013-01-22 16:25:00,
2013-01-22 11:30:00,25.5,4.0,29.82,NNW,338,14.8,14.8,39,0.00,,---,0.00,VWS V14.01,2013-01-22 16:30:00,
2013-01-22 11:35:00,25.9,4.9,29.82,NE,45,1.6,1.6,40,0.00,,---,0.00,VWS V14.01,2013-01-22 16:35:00,
2013-01-22 11:40:00,28.0,6.8,29.82,ENE,68,7.4,7.4,40,0.00,,---,0.00,VWS V14.01,2013-01-22 16:40:00,
2013-01-22 11:45:00,29.3,7.4,29.82,NNW,338,7.4,7.4,39,0.00,,---,0.00,VWS V14.01,2013-01-22 16:45:00,
2013-01-22 11:50:00,29.3,7.4,29.82,WNW,292,6.0,6.0,39,0.00,,---,0.00,VWS V14.01,2013-01-22 16:50:00,
2013-01-22 11:55:00,28.8,13.4,29.82,SW,225,10.7,10.7,52,0.00,,---,0.00,VWS V14.01,2013-01-22 16:55:00,
2013-01-22 12:00:00,28.8,13.4,29.82,WNW,292,3.8,3.8,52,0.00,,---,0.00,VWS V14.01,2013-01-22 17:00:00,
2013-01-22 12:05:00,29.7,11.4,29.82,North,0,18.6,18.6,46,0.00,,---,0.00,VWS V14.01,2013-01-22 17:05:00,
2013-01-22 12:10:00,29.8,9.0,29.79,NNE,22,5.6,5.6,41,0.00,,---,0.00,VWS V14.01,2013-01-22 17:10:00,
2013-01-22 12:15:00,28.4,7.7,29.79,NNW,338,12.5,12.5,41,0.00,,---,0.00,VWS V14.01,2013-01-22 17:15:00,
2013-01-22 12:20:00,26.4,8.5,29.79,NNW,338,11.4,12.3,46,0.00,,---,0.00,VWS V14.01,2013-01-22 17:20:00,
2013-01-22 12:25:00,28.4,8.8,29.79,ENE,68,3.6,3.6,43,0.00,,---,0.00,VWS V14.01,2013-01-22 17:25:00,
2013-01-22 12:30:00,28.4,7.7,29.79,NNW,338,7.6,7.6,41,0.00,,---,0.00,VWS V14.01,2013-01-22 17:30:00,
2013-01-22 12:35:00,29.1,7.3,29.79,WNW,292,4.7,4.7,39,0.00,,---,0.00,VWS V14.01,2013-01-22 17:35:00,
2013-01-22 12:40:00,28.8,6.4,29.79,NNW,338,6.3,6.3,38,0.00,,---,0.00,VWS V14.01,2013-01-22 17:40:00,
2013-01-22 12:45:00,28.2,5.3,29.79,NW,315,7.8,8.1,37,0.00,,---,0.00,VWS V14.01,2013-01-22 17:45:00,
2013-01-22 12:50:00,26.6,3.8,29.79,NE,45,5.4,8.5,37,0.00,,---,0.00,VWS V14.01,2013-01-22 17:50:00,
2013-01-22 12:55:00,27.9,5.6,29.79,West,270,8.1,8.1,38,0.00,,---,0.00,VWS V14.01,2013-01-22 17:55:00,
2013-01-22 13:00:00,28.2,4.7,29.79,NNW,338,5.4,14.3,36,0.00,,---,0.00,VWS V14.01,2013-01-22 18:00:00,
2013-01-22 13:05:00,28.2,5.3,29.79,NNW,338,7.4,10.7,37,0.00,,---,0.00,VWS V14.01,2013-01-22 18:05:00,
2013-01-22 13:10:00,28.8,5.8,29.79,North,0,15.4,15.4,37,0.00,,---,0.00,VWS V14.01,2013-01-22 18:10:00,
2013-01-22 13:15:00,26.8,3.4,29.79,NNW,338,13.0,13.0,36,0.00,,---,0.00,VWS V14.01,2013-01-22 18:15:00,
2013-01-22 13:20:00,26.8,3.4,29.79,WNW,292,10.3,10.3,36,0.00,,---,0.00,VWS V14.01,2013-01-22 18:20:00,
2013-01-22 13:25:00,27.3,3.9,29.79,NW,315,16.8,16.8,36,0.00,,---,0.00,VWS V14.01,2013-01-22 18:25:00,
2013-01-22 13:30:00,27.1,3.7,29.79,WNW,292,7.4,7.4,36,0.00,,---,0.00,VWS V14.01,2013-01-22 18:30:00,
2013-01-22 13:35:00,28.6,5.0,29.79,NNW,338,5.6,5.6,36,0.00,,---,0.00,VWS V14.01,2013-01-22 18:35:00,
2013-01-22 13:40:00,28.2,4.1,29.79,NW,315,15.2,15.2,35,0.00,,---,0.00,VWS V14.01,2013-01-22 18:40:00,
2013-01-22 13:45:00,25.2,1.4,29.79,NW,315,9.4,9.4,35,0.00,,---,0.00,VWS V14.01,2013-01-22 18:45:00,
2013-01-22 13:50:00,24.4,1.3,29.79,NNW,338,5.6,5.6,36,0.00,,---,0.00,VWS V14.01,2013-01-22 18:50:00,
2013-01-22 13:55:00,25.5,2.3,29.79,NW,315,10.3,10.3,36,0.00,,---,0.00,VWS V14.01,2013-01-22 18:55:00,
2013-01-22 14:00:00,26.1,2.8,29.79,WNW,292,3.4,3.4,36,0.00,,---,0.00,VWS V14.01,2013-01-22 19:00:00,
2013-01-22 14:05:00,26.4,3.1,29.79,NW,315,19.0,19.0,36,0.00,,---,0.00,VWS V14.01,2013-01-22 19:05:00,
2013-01-22 14:10:00,25.3,7.5,29.79,WNW,292,3.8,3.8,46,0.00,,---,0.00,VWS V14.01,2013-01-22 19:10:00,
2013-01-22 14:15:00,26.1,6.6,29.79,WNW,292,10.3,19.7,43,0.00,,---,0.00,VWS V14.01,2013-01-22 19:15:00,
2013-01-22 14:20:00,25.5,4.0,29.79,NNW,338,9.8,9.8,39,0.00,,---,0.00,VWS V14.01,2013-01-22 19:20:00,
2013-01-22 14:25:00,25.9,4.3,29.79,NNW,338,4.9,9.4,39,0.00,,---,0.00,VWS V14.01,2013-01-22 19:25:00,
2013-01-22 14:30:00,26.2,4.1,29.79,NNW,338,12.5,12.5,38,0.00,,---,0.00,VWS V14.01,2013-01-22 19:30:00,
2013-01-22 14:35:00,26.2,3.5,29.79,NNW,338,7.8,7.8,37,0.00,,---,0.00,VWS V14.01,2013-01-22 19:35:00,
2013-01-22 14:40:00,25.3,3.9,29.79,WNW,292,12.5,12.5,39,0.00,,---,0.00,VWS V14.01,2013-01-22 19:40:00,
2013-01-22 14:45:00,25.0,2.4,29.79,WNW,292,8.5,8.5,37,0.00,,---,0.00,VWS V14.01,2013-01-22 19:45:00,
2013-01-22 14:50:00,25.0,2.4,29.79,NNW,338,11.0,12.8,37,0.00,,---,0.00,VWS V14.01,2013-01-22 19:50:00,
2013-01-22 14:55:00,25.3,2.7,29.79,WNW,292,10.3,10.3,37,0.00,,---,0.00,VWS V14.01,2013-01-22 19:55:00,
2013-01-22 15:00:00,24.8,1.6,29.79,NNW,338,15.2,15.2,36,0.00,,---,0.00,VWS V14.01,2013-01-22 20:00:00,
2013-01-22 15:05:00,24.4,1.3,29.79,WSW,248,6.0,6.0,36,0.00,,---,0.00,VWS V14.01,2013-01-22 20:05:00,
2013-01-22 15:10:00,24.6,1.5,29.79,WSW,248,9.2,9.2,36,0.00,,---,0.00,VWS V14.01,2013-01-22 20:10:00,
2013-01-22 15:15:00,25.2,2.0,29.79,NW,315,3.1,3.1,36,0.00,,---,0.00,VWS V14.01,2013-01-22 20:15:00,
2013-01-22 15:20:00,24.3,0.6,29.79,NNW,338,8.7,16.3,35,0.00,,---,0.00,VWS V14.01,2013-01-22 20:20:00,
2013-01-22 15:25:00,24.3,0.6,29.82,WNW,292,10.3,10.7,35,0.00,,---,0.00,VWS V14.01,2013-01-22 20:25:00,
2013-01-22 15:30:00,24.1,0.4,29.82,WSW,248,8.7,8.7,35,0.00,,---,0.00,VWS V14.01,2013-01-22 20:30:00,
2013-01-22 15:35:00,23.7,0.1,29.82,WNW,292,10.3,10.3,35,0.00,,---,0.00,VWS V14.01,2013-01-22 20:35:00,
2013-01-22 15:40:00,24.3,1.2,29.82,WNW,292,5.4,5.4,36,0.00,,---,0.00,VWS V14.01,2013-01-22 20:40:00,
2013-01-22 15:45:00,23.7,0.1,29.82,West,270,4.9,4.9,35,0.00,,---,0.00,VWS V14.01,2013-01-22 20:45:00,
2013-01-22 15:50:00,23.4,-0.2,29.82,WNW,292,2.7,2.7,35,0.00,,---,0.00,VWS V14.01,2013-01-22 20:50:00,
2013-01-22 15:55:00,22.8,-0.7,29.82,NNW,338,7.8,7.8,35,0.00,,---,0.00,VWS V14.01,2013-01-22 20:55:00,
2013-01-22 16:00:00,22.6,-0.9,29.82,NNW,338,12.1,12.1,35,0.00,,---,0.00,VWS V14.01,2013-01-22 21:00:00,
2013-01-22 16:05:00,21.9,-1.5,29.82,NNE,22,15.2,15.2,35,0.00,,---,0.00,VWS V14.01,2013-01-22 21:05:00,
2013-01-22 16:10:00,21.9,-1.5,29.82,NW,315,5.8,5.8,35,0.00,,---,0.00,VWS V14.01,2013-01-22 21:10:00,
2013-01-22 16:15:00,21.7,-1.7,29.82,ESE,112,3.6,3.6,35,0.00,,---,0.00,VWS V14.01,2013-01-22 21:15:00,
2013-01-22 16:20:00,21.7,-1.1,29.82,WNW,292,10.1,10.1,36,0.00,,---,0.00,VWS V14.01,2013-01-22 21:20:00,
2013-01-22 16:25:00,21.4,-1.4,29.85,NW,315,12.5,12.5,36,0.00,,---,0.00,VWS V14.01,2013-01-22 21:25:00,
2013-01-22 16:30:00,21.2,6.8,29.85,NNW,338,12.5,12.8,53,0.00,,---,0.00,VWS V14.01,2013-01-22 21:30:00,
2013-01-22 16:31:00,20.8,5.1,29.85,North,0,10.7,12.5,50,0.00,,---,0.00,VWS V14.01,2013-01-22 21:31:00,
2013-01-22 16:36:00,21.0,7.0,29.85,NW,315,7.8,9.6,54,0.00,,---,0.00,VWS V14.01,2013-01-22 21:36:00,
2013-01-22 16:42:00,20.8,6.4,29.85,NNW,338,6.5,6.5,53,0.00,,---,0.00,VWS V14.01,2013-01-22 21:42:00,
2013-01-22 16:47:00,20.5,3.0,29.85,NW,315,8.7,8.7,46,0.00,,---,0.00,VWS V14.01,2013-01-22 21:47:00,
2013-01-22 16:52:00,20.3,1.4,29.85,North,0,12.3,12.3,43,0.00,,---,0.00,VWS V14.01,2013-01-22 21:52:00,
2013-01-22 16:57:00,20.3,1.4,29.85,NW,315,4.9,4.9,43,0.00,,---,0.00,VWS V14.01,2013-01-22 21:57:00,
2013-01-22 17:02:00,19.9,0.6,29.85,NNW,338,12.3,12.8,42,0.00,,---,0.00,VWS V14.01,2013-01-22 22:02:00,
2013-01-22 17:07:00,19.8,0.9,29.85,WNW,292,9.0,10.5,43,0.00,,---,0.00,VWS V14.01,2013-01-22 22:07:00,
2013-01-22 17:12:00,19.6,0.2,29.85,WNW,292,11.0,11.0,42,0.00,,---,0.00,VWS V14.01,2013-01-22 22:12:00,
2013-01-22 17:17:00,19.4,-0.4,29.85,NNE,22,6.9,6.9,41,0.00,,---,0.00,VWS V14.01,2013-01-22 22:17:00,
2013-01-22 17:22:00,19.4,-0.4,29.88,NNW,338,4.3,6.3,41,0.00,,---,0.00,VWS V14.01,2013-01-22 22:22:00,
2013-01-22 17:27:00,19.2,-0.6,29.88,NNW,338,4.7,6.3,41,0.00,,---,0.00,VWS V14.01,2013-01-22 22:27:00,
2013-01-22 17:32:00,19.2,-1.1,29.88,NW,315,4.0,4.0,40,0.00,,---,0.00,VWS V14.01,2013-01-22 22:32:00,
2013-01-22 17:37:00,19.0,-0.8,29.88,WNW,292,7.6,7.6,41,0.00,,---,0.00,VWS V14.01,2013-01-22 22:37:00,
2013-01-22 17:42:00,19.0,-0.8,29.88,WNW,292,5.6,5.6,41,0.00,,---,0.00,VWS V14.01,2013-01-22 22:42:00,
2013-01-22 17:47:00,18.9,-0.9,29.88,WNW,292,3.6,3.6,41,0.00,,---,0.00,VWS V14.01,2013-01-22 22:47:00,
2013-01-22 17:52:00,19.0,-0.8,29.88,NNE,22,7.4,7.4,41,0.00,,---,0.00,VWS V14.01,2013-01-22 22:52:00,
2013-01-22 17:57:00,18.9,-1.5,29.88,WNW,292,9.0,15.2,40,0.00,,---,0.00,VWS V14.01,2013-01-22 22:57:00,
2013-01-22 18:02:00,19.0,-0.8,29.88,West,270,7.2,14.3,41,0.00,,---,0.00,VWS V14.01,2013-01-22 23:02:00,
2013-01-22 18:07:00,18.9,-0.9,29.88,North,0,3.6,3.6,41,0.00,,---,0.00,VWS V14.01,2013-01-22 23:07:00,
2013-01-22 18:12:00,18.9,-0.9,29.88,NNW,338,4.3,5.8,41,0.00,,---,0.00,VWS V14.01,2013-01-22 23:12:00,
2013-01-22 18:17:00,18.9,-0.9,29.88,WNW,292,2.7,12.8,41,0.00,,---,0.00,VWS V14.01,2013-01-22 23:17:00,
2013-01-22 18:22:00,18.5,-1.3,29.91,WNW,292,10.3,10.3,41,0.00,,---,0.00,VWS V14.01,2013-01-22 23:22:00,
2013-01-22 18:27:00,18.5,-1.8,29.91,NNE,22,5.6,5.6,40,0.00,,---,0.00,VWS V14.01,2013-01-22 23:27:00,
2013-01-22 18:32:00,18.5,-1.8,29.91,NW,315,2.9,2.9,40,0.00,,---,0.00,VWS V14.01,2013-01-22 23:32:00,
2013-01-22 18:37:00,18.3,-2.0,29.91,NNW,338,4.9,4.9,40,0.00,,---,0.00,VWS V14.01,2013-01-22 23:37:00,
2013-01-22 18:42:00,18.3,-2.0,29.91,ENE,68,3.4,3.4,40,0.00,,---,0.00,VWS V14.01,2013-01-22 23:42:00,
2013-01-22 18:47:00,18.3,-2.0,29.91,NNW,338,3.4,4.3,40,0.00,,---,0.00,VWS V14.01,2013-01-22 23:47:00,
2013-01-22 18:52:00,18.3,-2.0,29.91,NNW,338,3.4,4.3,40,0.00,,---,0.00,VWS V14.01,2013-01-22 23:52:00,
2013-01-22 18:57:00,18.5,-1.8,29.91,NNE,22,2.9,2.9,40,0.00,,---,0.00,VWS V14.01,2013-01-22 23:57:00,
2013-01-22 19:02:00,18.3,-2.0,29.91,NNW,338,2.7,6.5,40,0.00,,---,0.00,VWS V14.01,2013-01-23 00:02:00,
2013-01-22 19:07:00,18.3,-2.0,29.91,WNW,292,2.9,2.9,40,0.00,,---,0.00,VWS V14.01,2013-01-23 00:07:00,
2013-01-22 19:12:00,18.1,-2.1,29.91,NW,315,7.4,7.4,40,0.00,,---,0.00,VWS V14.01,2013-01-23 00:12:00,
2013-01-22 19:17:00,18.1,-2.1,29.91,NW,315,4.0,4.5,40,0.00,,---,0.00,VWS V14.01,2013-01-23 00:17:00,
2013-01-22 19:22:00,18.1,-2.1,29.91,NW,315,4.9,4.9,40,0.00,,---,0.00,VWS V14.01,2013-01-23 00:22:00,
2013-01-22 19:27:00,18.0,-2.3,29.91,NW,315,5.8,8.1,40,0.00,,---,0.00,VWS V14.01,2013-01-23 00:27:00,
2013-01-22 19:32:00,17.8,-2.4,29.91,NW,315,8.1,8.1,40,0.00,,---,0.00,VWS V14.01,2013-01-23 00:32:00,
2013-01-22 19:37:00,17.8,-2.4,29.94,NNW,338,6.3,8.1,40,0.00,,---,0.00,VWS V14.01,2013-01-23 00:37:00,
2013-01-22 19:42:00,17.6,-2.6,29.94,NNW,338,2.7,5.6,40,0.00,,---,0.00,VWS V14.01,2013-01-23 00:42:00,
2013-01-22 19:47:00,17.8,-2.4,29.94,WNW,292,6.3,6.3,40,0.00,,---,0.00,VWS V14.01,2013-01-23 00:47:00,
2013-01-22 19:52:00,17.8,-2.4,29.94,NW,315,11.0,11.0,40,0.00,,---,0.00,VWS V14.01,2013-01-23 00:52:00,
2013-01-22 19:57:00,17.8,-2.4,29.94,WNW,292,12.3,12.3,40,0.00,,---,0.00,VWS V14.01,2013-01-23 00:57:00,
2013-01-22 20:02:00,17.8,-2.4,29.94,WNW,292,3.4,3.4,40,0.00,,---,0.00,VWS V14.01,2013-01-23 01:02:00,
2013-01-22 20:07:00,17.8,-2.4,29.94,WNW,292,5.8,5.8,40,0.00,,---,0.00,VWS V14.01,2013-01-23 01:07:00,
2013-01-22 20:12:00,17.6,-2.6,29.94,NNE,22,6.9,9.8,40,0.00,,---,0.00,VWS V14.01,2013-01-23 01:12:00,
2013-01-22 20:17:00,17.6,-2.6,29.94,NNW,338,3.6,4.0,40,0.00,,---,0.00,VWS V14.01,2013-01-23 01:17:00,
2013-01-22 20:22:00,17.6,-2.6,29.94,NNE,22,7.6,7.6,40,0.00,,---,0.00,VWS V14.01,2013-01-23 01:22:00,
2013-01-22 20:27:00,17.6,-2.1,29.94,NNW,338,5.6,5.6,41,0.00,,---,0.00,VWS V14.01,2013-01-23 01:27:00,
2013-01-22 20:32:00,17.4,-2.2,29.94,NW,315,6.3,6.3,41,0.00,,---,0.00,VWS V14.01,2013-01-23 01:32:00,
2013-01-22 20:37:00,17.4,-2.2,29.94,WNW,292,6.7,6.7,41,0.00,,---,0.00,VWS V14.01,2013-01-23 01:37:00,
2013-01-22 20:42:00,17.4,-2.2,29.94,WNW,292,3.1,6.0,41,0.00,,---,0.00,VWS V14.01,2013-01-23 01:42:00,
2013-01-22 20:47:00,17.2,-2.4,29.94,WNW,292,5.8,5.8,41,0.00,,---,0.00,VWS V14.01,2013-01-23 01:47:00,
2013-01-22 20:52:00,17.2,-2.4,29.94,WNW,292,4.3,4.3,41,0.00,,---,0.00,VWS V14.01,2013-01-23 01:52:00,
2013-01-22 20:57:00,17.1,-2.6,29.94,NNW,338,5.8,6.5,41,0.00,,---,0.00,VWS V14.01,2013-01-23 01:57:00,
2013-01-22 21:02:00,17.1,-3.1,29.94,WNW,292,2.7,2.7,40,0.00,,---,0.00,VWS V14.01,2013-01-23 02:02:00,
2013-01-22 21:07:00,16.9,-3.2,29.94,NNW,338,5.6,5.6,40,0.00,,---,0.00,VWS V14.01,2013-01-23 02:07:00,
2013-01-22 21:12:00,16.9,-3.2,29.94,WNW,292,3.1,3.4,40,0.00,,---,0.00,VWS V14.01,2013-01-23 02:12:00,
2013-01-22 21:17:00,16.9,-3.2,29.94,NNE,22,4.3,4.3,40,0.00,,---,0.00,VWS V14.01,2013-01-23 02:17:00,
2013-01-22 21:22:00,16.9,-3.2,29.94,NNW,338,4.0,4.0,40,0.00,,---,0.00,VWS V14.01,2013-01-23 02:22:00,
2013-01-22 21:27:00,16.9,-3.2,29.94,NW,315,10.1,10.1,40,0.00,,---,0.00,VWS V14.01,2013-01-23 02:27:00,
2013-01-22 21:32:00,16.9,-3.2,29.94,NW,315,10.1,10.1,40,0.00,,---,0.00,VWS V14.01,2013-01-23 02:32:00,
2013-01-22 21:38:00,16.7,-3.4,29.94,West,270,9.8,9.8,40,0.00,,---,0.00,VWS V14.01,2013-01-23 02:38:00,
2013-01-22 21:43:00,16.9,-3.2,29.94,ENE,68,7.4,7.4,40,0.00,,---,0.00,VWS V14.01,2013-01-23 02:43:00,
2013-01-22 21:48:00,16.5,-3.6,29.94,NW,315,6.5,7.6,40,0.00,,---,0.00,VWS V14.01,2013-01-23 02:48:00,
2013-01-22 21:53:00,16.5,-4.1,29.94,WNW,292,8.5,8.5,39,0.00,,---,0.00,VWS V14.01,2013-01-23 02:53:00,
2013-01-22 21:57:00,16.5,-4.1,29.94,WNW,292,6.5,11.0,39,0.00,,---,0.00,VWS V14.01,2013-01-23 02:57:00,
2013-01-22 22:02:00,16.5,-3.6,29.94,NNW,338,7.6,7.6,40,0.00,,---,0.00,VWS V14.01,2013-01-23 03:02:00,
2013-01-22 22:07:00,16.3,-3.7,29.97,NNW,338,3.4,3.4,40,0.00,,---,0.00,VWS V14.01,2013-01-23 03:07:00,
2013-01-22 22:12:00,16.3,-4.3,29.97,NNW,338,10.1,10.1,39,0.00,,---,0.00,VWS V14.01,2013-01-23 03:12:00,
2013-01-22 22:17:00,16.2,-4.4,29.97,WNW,292,3.4,8.5,39,0.00,,---,0.00,VWS V14.01,2013-01-23 03:17:00,
2013-01-22 22:22:00,16.2,-4.4,29.97,NNE,22,5.8,7.4,39,0.00,,---,0.00,VWS V14.01,2013-01-23 03:22:00,
2013-01-22 22:27:00,16.0,-4.6,29.97,WNW,292,4.0,4.0,39,0.00,,---,0.00,VWS V14.01,2013-01-23 03:27:00,
2013-01-22 22:32:00,16.0,-4.6,29.97,NNW,338,6.3,6.3,39,0.00,,---,0.00,VWS V14.01,2013-01-23 03:32:00,
2013-01-22 22:37:00,16.0,-4.1,29.97,NW,315,19.7,19.7,40,0.00,,---,0.00,VWS V14.01,2013-01-23 03:37:00,
2013-01-22 22:42:00,16.0,-4.1,29.97,NNW,338,2.7,2.7,40,0.00,,---,0.00,VWS V14.01,2013-01-23 03:42:00,
2013-01-22 22:47:00,15.8,-4.2,29.97,NW,315,4.0,8.1,40,0.00,,---,0.00,VWS V14.01,2013-01-23 03:47:00,
2013-01-22 22:52:00,15.8,-4.2,29.97,North,0,7.2,7.2,40,0.00,,---,0.00,VWS V14.01,2013-01-23 03:52:00,
2013-01-22 22:57:00,15.6,-4.9,29.97,WNW,292,8.5,8.5,39,0.00,,---,0.00,VWS V14.01,2013-01-23 03:57:00,
2013-01-22 23:02:00,15.6,-4.4,29.97,NNW,338,5.4,5.4,40,0.00,,---,0.00,VWS V14.01,2013-01-23 04:02:00,
2013-01-22 23:07:00,15.4,-4.6,29.97,NNW,338,4.0,6.0,40,0.00,,---,0.00,VWS V14.01,2013-01-23 04:07:00,
2013-01-22 23:12:00,15.6,-4.4,29.97,NNW,338,6.3,6.3,40,0.00,,---,0.00,VWS V14.01,2013-01-23 04:12:00,
2013-01-22 23:17:00,15.4,-4.6,29.97,NNW,338,3.8,5.4,40,0.00,,---,0.00,VWS V14.01,2013-01-23 04:17:00,
2013-01-22 23:22:00,15.4,-4.6,29.97,NW,315,1.3,6.3,40,0.00,,---,0.00,VWS V14.01,2013-01-23 04:22:00,
2013-01-22 23:27:00,15.3,-4.7,29.97,North,0,5.4,5.4,40,0.00,,---,0.00,VWS V14.01,2013-01-23 04:27:00,
2013-01-22 23:32:00,15.3,-4.7,29.97,NNE,22,3.1,3.1,40,0.00,,---,0.00,VWS V14.01,2013-01-23 04:32:00,
2013-01-22 23:37:00,15.1,-4.9,29.97,NNW,338,6.3,6.3,40,0.00,,---,0.00,VWS V14.01,2013-01-23 04:37:00,
2013-01-22 23:42:00,15.3,-4.7,29.97,NNW,338,3.8,3.8,40,0.00,,---,0.00,VWS V14.01,2013-01-23 04:42:00,
2013-01-22 23:47:00,15.3,-4.2,29.97,NNW,338,3.6,3.6,41,0.00,,---,0.00,VWS V14.01,2013-01-23 04:47:00,
2013-01-22 23:52:00,15.1,-4.4,29.97,NNW,338,3.6,6.7,41,0.00,,---,0.00,VWS V14.01,2013-01-23 04:52:00,
2013-01-22 23:57:00,15.1,-4.4,29.97,WNW,292,6.3,6.3,41,0.00,,---,0.00,VWS V14.01,2013-01-23 04:57:00,